createdAt,value
2023-11-18T00:02:11.230Z,91.49
2023-11-18T00:04:44.518Z,92.39
2023-11-18T00:07:17.754Z,91.15
2023-11-18T00:09:54.180Z,91.55
2023-11-18T00:12:27.690Z,91.83
2023-11-18T00:15:01.261Z,91.09
2023-11-18T00:17:34.127Z,92.01
2023-11-18T00:20:11.994Z,91.43
2023-11-18T00:22:46.412Z,91.78
2023-11-18T00:25:26.365Z,93.42
2023-11-18T00:28:01.618Z,93.49
2023-11-18T00:30:38.828Z,92.97
2023-11-18T00:33:12.543Z,92.30
2023-11-18T00:35:47.533Z,92.79
2023-11-18T00:38:27.259Z,92.20
2023-11-18T00:41:04.095Z,94.79
2023-11-18T00:43:37.321Z,93.37
2023-11-18T00:46:11.869Z,95.48
2023-11-18T00:48:46.646Z,93.43
2023-11-18T00:51:21.765Z,92.89
2023-11-18T00:53:55.807Z,92.79
2023-11-18T00:56:32.232Z,92.70
2023-11-18T00:59:08.278Z,92.43
2023-11-18T01:01:42.394Z,92.49
2023-11-18T01:04:16.060Z,92.64
2023-11-18T01:06:50.321Z,92.33
2023-11-18T01:09:23.386Z,93.85
2023-11-18T01:12:07.914Z,95.72
2023-11-18T01:14:43.957Z,93.97
2023-11-18T01:17:18.114Z,93.51
2023-11-18T01:19:51.667Z,92.98
2023-11-18T01:22:25.777Z,93.63
2023-11-18T01:24:59.986Z,92.63
2023-11-18T01:27:39.829Z,92.77
2023-11-18T01:30:18.234Z,93.55
2023-11-18T01:32:51.665Z,94.30
2023-11-18T01:35:28.652Z,93.61
2023-11-18T01:38:02.392Z,92.66
2023-11-18T01:40:39.263Z,92.44
2023-11-18T01:43:19.305Z,92.66
2023-11-18T01:45:55.103Z,91.68
2023-11-18T01:48:29.661Z,91.30
2023-11-18T01:51:03.104Z,92.79
2023-11-18T01:53:37.947Z,92.68
2023-11-18T01:56:13.210Z,91.86
2023-11-18T01:58:50.974Z,91.56
2023-11-18T02:01:24.862Z,92.76
2023-11-18T02:03:58.950Z,94.01
2023-11-18T02:06:33.677Z,92.57
2023-11-18T02:09:07.822Z,93.99
2023-11-18T02:11:46.608Z,93.63
2023-11-18T02:14:25.546Z,94.65
2023-11-18T02:17:05.173Z,94.59
2023-11-18T02:19:44.018Z,92.24
2023-11-18T02:22:18.779Z,91.17
2023-11-18T02:24:55.014Z,92.83
2023-11-18T02:27:34.120Z,92.10
2023-11-18T02:30:08.328Z,92.80
2023-11-18T02:32:46.587Z,92.57
2023-11-18T02:35:28.450Z,91.99
2023-11-18T02:38:04.553Z,93.07
2023-11-18T02:40:42.436Z,94.38
2023-11-18T02:43:20.134Z,89.26
2023-11-18T02:45:56.822Z,90.47
2023-11-18T02:48:33.953Z,94.81
2023-11-18T02:51:09.643Z,94.27
2023-11-18T02:53:43.236Z,94.71
2023-11-18T02:56:16.927Z,87.93
2023-11-18T02:58:52.414Z,89.76
2023-11-18T03:01:27.169Z,89.31
2023-11-18T03:04:00.251Z,90.16
2023-11-18T03:06:34.431Z,93.92
2023-11-18T03:09:09.406Z,92.68
2023-11-18T03:11:46.091Z,94.36
2023-11-18T03:14:21.598Z,93.24
2023-11-18T03:16:58.334Z,94.24
2023-11-18T03:19:33.741Z,93.96
2023-11-18T03:22:06.886Z,94.84
2023-11-18T03:24:40.294Z,94.21
2023-11-18T03:27:16.570Z,95.32
2023-11-18T03:29:53.689Z,94.56
2023-11-18T03:32:29.984Z,94.50
2023-11-18T03:35:04.098Z,94.73
2023-11-18T03:37:37.601Z,93.10
2023-11-18T03:40:17.780Z,92.63
2023-11-18T03:42:56.394Z,94.33
2023-11-18T03:45:33.054Z,94.10
2023-11-18T03:48:06.449Z,93.89
2023-11-18T03:50:39.923Z,93.94
2023-11-18T03:53:13.334Z,93.87
2023-11-18T03:55:46.573Z,91.52
2023-11-18T03:58:20.478Z,92.04
2023-11-18T04:00:58.196Z,93.16
2023-11-18T04:03:33.887Z,93.10
2023-11-18T04:06:06.605Z,91.88
2023-11-18T04:08:40.205Z,90.68
2023-11-18T04:11:13.252Z,90.71
2023-11-18T04:13:47.535Z,93.68
2023-11-18T04:16:23.693Z,91.97
2023-11-18T04:18:59.225Z,92.08
2023-11-18T04:21:38.313Z,91.48
2023-11-18T04:24:12.315Z,94.09
2023-11-18T04:26:45.298Z,92.89
2023-11-18T04:29:19.743Z,91.80
2023-11-18T04:32:02.130Z,91.55
2023-11-18T04:34:35.725Z,92.37
2023-11-18T04:37:08.891Z,94.78
2023-11-18T04:39:42.426Z,95.69
2023-11-18T04:42:17.042Z,95.87
2023-11-18T04:44:52.054Z,94.09
2023-11-18T04:47:28.702Z,92.67
2023-11-18T04:50:02.663Z,94.79
2023-11-18T04:52:38.487Z,94.16
2023-11-18T04:55:14.899Z,94.02
2023-11-18T04:57:48.780Z,95.37
2023-11-18T05:00:23.335Z,97.22
2023-11-18T05:03:02.676Z,96.82
2023-11-18T05:05:41.509Z,96.70
2023-11-18T05:08:24.330Z,95.18
2023-11-18T05:10:59.327Z,96.50
2023-11-18T05:13:32.893Z,96.82
2023-11-18T05:16:06.850Z,95.17
2023-11-18T05:18:42.922Z,95.85
2023-11-18T05:21:18.661Z,92.07
2023-11-18T05:23:52.806Z,90.51
2023-11-18T05:26:27.014Z,94.33
2023-11-18T05:29:00.376Z,93.66
2023-11-18T05:31:36.273Z,93.57
2023-11-18T05:34:14.115Z,93.75
2023-11-18T05:36:48.288Z,93.45
2023-11-18T05:39:22.308Z,92.36
2023-11-18T05:41:57.667Z,93.42
2023-11-18T05:44:39.216Z,93.74
2023-11-18T05:47:13.845Z,94.96
2023-11-18T05:49:49.655Z,95.73
2023-11-18T05:52:27.379Z,95.45
2023-11-18T05:55:01.583Z,95.48
2023-11-18T05:57:37.692Z,95.69
2023-11-18T06:00:11.233Z,96.86
2023-11-18T06:02:45.645Z,96.84
2023-11-18T06:05:22.966Z,97.32
2023-11-18T06:07:56.421Z,97.21
2023-11-18T06:10:29.973Z,97.00
2023-11-18T06:13:03.023Z,94.30
2023-11-18T06:15:40.077Z,93.92
2023-11-18T06:18:13.555Z,94.21
2023-11-18T06:20:49.757Z,94.59
2023-11-18T06:23:23.095Z,93.45
2023-11-18T06:25:56.033Z,93.38
2023-11-18T06:28:30.022Z,94.23
2023-11-18T06:31:03.152Z,95.15
2023-11-18T06:33:36.914Z,94.34
2023-11-18T06:36:12.879Z,94.32
2023-11-18T06:38:46.189Z,94.20
2023-11-18T06:41:19.631Z,93.66
2023-11-18T06:44:05.546Z,93.44
2023-11-18T06:46:41.892Z,92.66
2023-11-18T06:49:17.908Z,94.25
2023-11-18T06:51:53.169Z,95.73
2023-11-18T06:54:28.496Z,95.28
2023-11-18T06:57:01.194Z,96.42
2023-11-18T06:59:35.354Z,96.85
2023-11-18T07:02:08.503Z,94.78
2023-11-18T07:04:41.748Z,93.65
2023-11-18T07:07:16.737Z,93.94
2023-11-18T07:09:52.459Z,93.59
2023-11-18T07:12:27.277Z,93.38
2023-11-18T07:15:00.560Z,90.93
2023-11-18T07:17:32.924Z,88.04
2023-11-18T07:20:07.692Z,88.53
2023-11-18T07:22:42.585Z,90.15
2023-11-18T07:25:15.639Z,88.88
2023-11-18T07:27:48.510Z,86.46
2023-11-18T07:30:21.949Z,86.25
2023-11-18T07:33:04.939Z,84.38
2023-11-18T07:35:39.554Z,86.52
2023-11-18T07:38:15.254Z,83.91
2023-11-18T07:40:50.152Z,84.54
2023-11-18T07:43:23.374Z,84.17
2023-11-18T07:45:57.452Z,83.04
2023-11-18T07:48:32.964Z,83.44
2023-11-18T07:51:08.726Z,87.10
2023-11-18T07:53:44.565Z,87.63
2023-11-18T07:56:18.579Z,87.04
2023-11-18T07:58:54.008Z,88.11
2023-11-18T08:01:28.498Z,88.06
2023-11-18T08:04:01.934Z,85.74
2023-11-18T08:06:35.643Z,86.94
2023-11-18T08:09:15.247Z,90.93
2023-11-18T08:11:51.101Z,87.19
2023-11-18T08:14:24.522Z,89.57
2023-11-18T08:16:58.449Z,87.13
2023-11-18T08:19:32.657Z,84.44
2023-11-18T08:22:07.901Z,83.05
2023-11-18T08:24:44.742Z,84.84
2023-11-18T08:27:22.170Z,83.25
2023-11-18T08:29:56.480Z,83.24
2023-11-18T08:32:29.867Z,82.49
2023-11-18T08:35:03.978Z,82.75
2023-11-18T08:37:38.356Z,82.37
2023-11-18T08:40:16.895Z,84.19
2023-11-18T08:42:52.379Z,80.84
2023-11-18T08:45:29.583Z,83.61
2023-11-18T08:48:05.867Z,88.53
2023-11-18T08:50:41.612Z,90.50
2023-11-18T08:53:19.921Z,91.27
2023-11-18T08:55:56.484Z,89.79
2023-11-18T08:58:35.724Z,86.42
2023-11-18T09:01:15.913Z,85.70
2023-11-18T09:03:54.925Z,88.57
2023-11-18T09:06:58.697Z,89.04
2023-11-18T09:09:41.395Z,89.43
2023-11-18T09:12:16.832Z,87.69
2023-11-18T09:14:53.456Z,87.62
2023-11-18T09:17:29.318Z,86.96
2023-11-18T09:20:04.398Z,87.21
2023-11-18T09:22:39.196Z,89.28
2023-11-18T09:25:15.022Z,88.25
2023-11-18T09:27:49.714Z,89.33
2023-11-18T09:30:22.334Z,89.50
2023-11-18T09:33:00.338Z,89.08
2023-11-18T09:35:36.090Z,90.37
2023-11-18T09:38:08.269Z,88.81
2023-11-18T09:40:47.816Z,88.47
2023-11-18T09:43:25.333Z,86.90
2023-11-18T09:46:01.681Z,86.75
2023-11-18T09:48:42.710Z,85.82
2023-11-18T09:51:25.832Z,85.80
2023-11-18T09:54:06.737Z,86.49
2023-11-18T09:56:58.864Z,85.89
2023-11-18T09:59:45.019Z,85.42
2023-11-18T10:02:20.882Z,87.80
2023-11-18T10:04:59.412Z,87.86
2023-11-18T10:07:37.786Z,85.90
2023-11-18T10:10:16.870Z,85.85
2023-11-18T10:12:54.207Z,87.16
2023-11-18T10:15:33.089Z,85.63
2023-11-18T10:18:23.981Z,84.99
2023-11-18T10:21:01.902Z,85.13
2023-11-18T10:23:39.234Z,86.38
2023-11-18T10:26:20.032Z,86.40
2023-11-18T10:29:10.594Z,86.31
2023-11-18T10:32:05.624Z,84.13
2023-11-18T10:34:44.910Z,81.41
2023-11-18T10:37:18.641Z,82.30
2023-11-18T10:39:55.718Z,85.09
2023-11-18T10:42:35.793Z,85.06
2023-11-18T10:45:15.076Z,83.64
2023-11-18T10:47:53.323Z,83.50
2023-11-18T10:50:33.707Z,83.45
2023-11-18T10:53:13.342Z,84.07
2023-11-18T10:55:48.593Z,85.06
2023-11-18T10:58:27.309Z,86.18
2023-11-18T11:01:02.187Z,85.32
2023-11-18T11:03:38.762Z,82.99
2023-11-18T11:06:25.800Z,83.57
2023-11-18T11:09:00.640Z,85.11
2023-11-18T11:11:53.454Z,84.13
2023-11-18T11:14:37.525Z,84.49
2023-11-18T11:17:19.837Z,84.00
2023-11-18T11:20:13.604Z,84.11
2023-11-18T11:23:05.922Z,83.39
2023-11-18T11:25:52.526Z,82.75
2023-11-18T11:28:27.700Z,83.56
2023-11-18T11:31:08.385Z,83.34
2023-11-18T11:33:48.219Z,82.23
2023-11-18T11:36:31.308Z,80.11
2023-11-18T11:39:13.588Z,79.53
2023-11-18T11:41:52.539Z,79.00
2023-11-18T11:44:31.568Z,79.04
2023-11-18T11:47:09.231Z,79.21
2023-11-18T11:49:50.896Z,79.37
2023-11-18T11:52:39.342Z,79.31
2023-11-18T11:55:21.109Z,79.17
2023-11-18T11:58:00.365Z,79.75
2023-11-18T12:00:36.959Z,79.92
2023-11-18T12:03:20.801Z,78.14
2023-11-18T12:05:56.883Z,78.91
2023-11-18T12:08:32.247Z,76.16
2023-11-18T12:11:07.780Z,74.78
2023-11-18T12:13:46.744Z,75.42
2023-11-18T12:16:22.726Z,75.11
2023-11-18T12:19:46.620Z,75.49
2023-11-18T12:22:26.326Z,74.36
2023-11-18T12:25:31.562Z,73.08
2023-11-18T12:28:16.663Z,70.52
2023-11-18T12:30:58.735Z,72.42
2023-11-18T12:34:12.026Z,72.69
2023-11-18T12:37:19.710Z,71.42
2023-11-18T12:40:36.577Z,73.59
2023-11-18T12:43:26.738Z,75.66
2023-11-18T12:46:38.231Z,75.28
2023-11-18T12:49:19.640Z,74.63
2023-11-18T12:51:52.829Z,76.28
2023-11-18T12:54:39.099Z,74.26
2023-11-18T12:57:15.864Z,75.51
2023-11-18T12:59:53.593Z,76.92
2023-11-18T13:02:26.843Z,76.25
2023-11-18T13:05:11.593Z,73.79
2023-11-18T13:07:51.299Z,70.27
2023-11-18T13:10:24.595Z,72.09
2023-11-18T13:13:00.349Z,73.00
2023-11-18T13:15:38.019Z,73.53
2023-11-18T13:18:14.185Z,74.59
2023-11-18T13:21:00.921Z,73.66
2023-11-18T13:23:36.467Z,75.26
2023-11-18T13:26:17.324Z,72.87
2023-11-18T13:28:52.842Z,72.44
2023-11-18T13:31:44.564Z,70.16
2023-11-18T13:34:24.545Z,69.98
2023-11-18T13:37:24.667Z,69.73
2023-11-18T13:40:19.240Z,70.56
2023-11-18T13:43:19.074Z,70.47
2023-11-18T13:46:09.718Z,70.63
2023-11-18T13:49:02.302Z,70.35
2023-11-18T13:52:02.822Z,69.90
2023-11-18T13:55:01.354Z,70.66
2023-11-18T13:57:50.084Z,71.01
2023-11-18T14:00:32.406Z,72.65
2023-11-18T14:03:12.171Z,73.09
2023-11-18T14:05:48.444Z,73.20
2023-11-18T14:08:22.488Z,74.20
2023-11-18T14:11:02.499Z,74.85
2023-11-18T14:13:36.430Z,74.88
2023-11-18T14:16:14.222Z,75.47
2023-11-18T14:18:47.306Z,75.50
2023-11-18T14:21:21.966Z,76.10
2023-11-18T14:23:57.545Z,75.48
2023-11-18T14:26:29.392Z,75.74
2023-11-18T14:29:03.898Z,75.68
2023-11-18T14:31:36.006Z,75.63
2023-11-18T14:34:11.508Z,76.15
2023-11-18T14:36:46.332Z,76.86
2023-11-18T14:39:19.666Z,76.66
2023-11-18T14:41:51.567Z,76.75
2023-11-18T14:44:23.663Z,76.60
2023-11-18T14:46:56.433Z,76.70
2023-11-18T14:49:28.626Z,76.78
2023-11-18T14:52:19.306Z,76.78
2023-11-18T14:54:59.565Z,76.59
2023-11-18T14:57:31.546Z,76.05
2023-11-18T15:00:03.847Z,76.36
2023-11-18T15:02:37.464Z,76.42
2023-11-18T15:05:11.225Z,76.31
2023-11-18T15:07:46.825Z,76.96
2023-11-18T15:10:22.932Z,76.56
2023-11-18T15:13:02.820Z,77.01
2023-11-18T15:15:37.240Z,77.04
2023-11-18T15:18:16.085Z,77.21
2023-11-18T15:20:50.155Z,77.49
2023-11-18T15:23:29.311Z,77.79
2023-11-18T15:26:06.989Z,78.39
2023-11-18T15:28:43.633Z,79.29
2023-11-18T15:31:17.630Z,79.57
2023-11-18T15:33:53.838Z,78.91
2023-11-18T15:36:49.452Z,78.76
2023-11-18T15:39:29.789Z,79.33
2023-11-18T15:42:03.707Z,79.08
2023-11-18T15:44:40.060Z,78.94
2023-11-18T15:47:15.528Z,79.21
2023-11-18T15:49:49.716Z,79.32
2023-11-18T15:52:30.954Z,78.96
2023-11-18T15:55:27.844Z,78.88
2023-11-18T15:58:02.266Z,78.76
2023-11-18T16:00:41.632Z,78.25
2023-11-18T16:03:16.473Z,77.89
2023-11-18T16:05:51.202Z,78.05
2023-11-18T16:08:28.273Z,78.46
2023-11-18T16:11:10.153Z,78.53
2023-11-18T16:13:44.138Z,78.28
2023-11-18T16:16:17.822Z,78.69
2023-11-18T16:22:51.701Z,78.88
2023-11-18T16:25:44.583Z,79.39
2023-11-18T16:28:23.664Z,79.16
2023-11-18T16:30:59.193Z,79.44
2023-11-18T16:33:46.956Z,80.09
2023-11-18T16:36:26.841Z,80.26
2023-11-18T16:39:01.149Z,80.43
2023-11-18T16:41:43.471Z,80.52
2023-11-18T16:44:20.890Z,81.18
2023-11-18T16:46:53.838Z,82.27
2023-11-18T16:49:25.941Z,81.96
2023-11-18T16:52:04.714Z,81.49
2023-11-18T16:54:41.440Z,82.24
2023-11-18T16:57:14.832Z,82.05
2023-11-18T16:59:53.247Z,82.37
2023-11-18T17:02:26.564Z,82.31
2023-11-18T17:04:59.062Z,82.84
2023-11-18T17:07:32.022Z,83.46
2023-11-18T17:10:06.027Z,83.25
2023-11-18T17:12:39.343Z,83.25
2023-11-18T17:15:17.470Z,83.16
2023-11-18T17:17:55.334Z,82.68
2023-11-18T17:20:28.065Z,82.90
2023-11-18T17:23:01.675Z,82.50
2023-11-18T17:25:34.664Z,81.94
2023-11-18T17:28:07.871Z,81.76
2023-11-18T17:30:48.578Z,81.66
2023-11-18T17:33:44.230Z,81.37
2023-11-18T17:36:22.303Z,81.03
2023-11-18T17:38:59.518Z,81.22
2023-11-18T17:41:33.842Z,80.80
2023-11-18T17:44:11.240Z,80.29
2023-11-18T17:46:51.501Z,79.70
2023-11-18T17:49:32.596Z,79.30
2023-11-18T17:52:05.854Z,79.00
2023-11-18T17:54:43.615Z,78.02
2023-11-18T17:57:20.731Z,78.10
2023-11-18T18:00:00.000Z,77.71
2023-11-18T18:02:36.672Z,77.64
2023-11-18T18:05:09.814Z,77.21
2023-11-18T18:07:43.119Z,77.06
2023-11-18T18:10:18.239Z,76.57
2023-11-18T18:12:56.812Z,76.35
2023-11-18T18:15:31.000Z,76.23
2023-11-18T18:18:12.572Z,75.45
2023-11-18T18:20:49.718Z,75.47
2023-11-18T18:23:21.724Z,75.03
2023-11-18T18:25:53.846Z,74.79
2023-11-18T18:28:25.791Z,75.44
2023-11-18T18:30:58.486Z,75.87
2023-11-18T18:33:33.102Z,75.73
2023-11-18T18:36:06.841Z,75.15
2023-11-18T18:38:38.849Z,75.09
2023-11-18T18:41:11.089Z,75.45
2023-11-18T18:43:44.426Z,76.57
2023-11-18T18:46:16.826Z,76.94
2023-11-18T18:48:51.700Z,77.33
2023-11-18T18:51:24.120Z,77.94
2023-11-18T18:53:55.981Z,77.70
2023-11-18T18:56:28.074Z,77.98
2023-11-18T18:59:00.254Z,78.39
2023-11-18T19:01:32.752Z,78.21
2023-11-18T19:04:09.637Z,78.04
2023-11-18T19:06:41.901Z,77.97
2023-11-18T19:09:13.784Z,78.36
2023-11-18T19:11:46.206Z,78.29
2023-11-18T19:14:19.224Z,78.56
2023-11-18T19:16:52.416Z,78.61
2023-11-18T19:19:27.961Z,78.59
2023-11-18T19:22:01.731Z,79.02
2023-11-18T19:24:35.122Z,79.82
2023-11-18T19:27:11.626Z,79.21
2023-11-18T19:32:32.343Z,79.06
2023-11-18T19:35:09.420Z,78.70
2023-11-18T19:37:42.554Z,78.64
2023-11-18T19:40:17.215Z,78.21
2023-11-18T19:42:51.421Z,78.32
2023-11-18T19:45:24.081Z,78.35
2023-11-18T19:47:59.050Z,78.43
2023-11-18T19:50:34.284Z,78.17
2023-11-18T19:53:08.886Z,78.10
2023-11-18T19:55:41.342Z,78.23
2023-11-18T19:58:14.900Z,77.56
2023-11-18T20:00:49.137Z,77.11
2023-11-18T20:03:24.298Z,76.46
2023-11-18T20:06:00.035Z,76.59
2023-11-18T20:08:33.568Z,75.90
2023-11-18T20:11:12.169Z,76.04
2023-11-18T20:13:45.848Z,75.30
2023-11-18T20:16:19.101Z,74.93
2023-11-18T20:18:53.535Z,75.27
2023-11-18T20:21:29.710Z,75.14
2023-11-18T20:24:03.834Z,74.99
2023-11-18T20:26:36.944Z,75.57
2023-11-18T20:29:10.753Z,75.09
2023-11-18T20:31:44.321Z,74.92
2023-11-18T20:34:19.642Z,75.03
2023-11-18T20:36:56.258Z,74.99
2023-11-18T20:39:30.903Z,75.38
2023-11-18T20:42:04.777Z,74.67
2023-11-18T20:44:39.433Z,75.21
2023-11-18T20:47:40.431Z,75.07
2023-11-18T20:50:37.497Z,74.63
2023-11-18T20:53:12.863Z,75.39
2023-11-18T20:55:45.593Z,74.77
2023-11-18T20:58:20.525Z,74.83
2023-11-18T21:00:56.364Z,74.41
2023-11-18T21:03:29.471Z,74.98
2023-11-18T21:06:02.540Z,74.73
2023-11-18T21:08:38.272Z,74.49
2023-11-18T21:11:12.736Z,74.84
2023-11-18T21:13:45.466Z,74.25
2023-11-18T21:16:19.104Z,73.77
2023-11-18T21:18:52.367Z,73.61
2023-11-18T21:21:26.270Z,73.50
2023-11-18T21:24:04.534Z,73.69
2023-11-18T21:26:38.146Z,73.68
2023-11-18T21:29:12.097Z,73.66
2023-11-18T21:31:47.916Z,73.33
2023-11-18T21:34:23.315Z,72.84
2023-11-18T21:36:58.270Z,72.29
2023-11-18T21:39:34.828Z,72.71
2023-11-18T21:42:15.332Z,72.50
2023-11-18T21:44:49.963Z,72.38
2023-11-18T21:47:27.348Z,72.65
2023-11-18T21:50:00.462Z,73.00
2023-11-18T21:52:38.207Z,72.65
2023-11-18T21:55:15.107Z,72.37
2023-11-18T21:57:49.786Z,72.33
2023-11-18T22:00:23.464Z,72.76
2023-11-18T22:02:57.070Z,73.00
2023-11-18T22:05:29.805Z,72.55
2023-11-18T22:08:02.644Z,72.58
2023-11-18T22:10:38.193Z,72.59
2023-11-18T22:13:10.857Z,72.74
2023-11-18T22:15:43.220Z,72.92
2023-11-18T22:18:16.284Z,73.01
2023-11-18T22:20:51.618Z,73.41
2023-11-18T22:23:24.513Z,73.53
2023-11-18T22:26:18.395Z,73.97
2023-11-18T22:29:22.326Z,74.00
2023-11-18T22:31:56.871Z,74.18
2023-11-18T22:34:29.676Z,74.22
2023-11-18T22:37:02.583Z,73.99
2023-11-18T22:39:36.777Z,74.12
2023-11-18T22:42:14.618Z,74.06
2023-11-18T22:44:47.135Z,74.89
2023-11-18T22:47:20.798Z,75.88
2023-11-18T22:49:53.501Z,76.79
2023-11-18T22:52:27.301Z,76.87
2023-11-18T22:55:00.066Z,78.26
2023-11-18T22:57:39.697Z,78.01
2023-11-18T23:00:30.230Z,78.57
2023-11-18T23:03:05.610Z,78.86
2023-11-18T23:05:41.695Z,79.99
2023-11-18T23:08:18.593Z,80.48
2023-11-18T23:10:52.637Z,79.87
2023-11-18T23:13:32.341Z,81.24
2023-11-18T23:16:08.063Z,80.81
2023-11-18T23:18:45.408Z,80.84
2023-11-18T23:21:21.260Z,80.52
2023-11-18T23:23:56.332Z,80.59
2023-11-18T23:26:34.026Z,80.53
2023-11-18T23:29:13.207Z,80.59
2023-11-18T23:31:48.444Z,80.23
2023-11-18T23:34:23.572Z,80.13
2023-11-18T23:37:00.500Z,80.42
2023-11-18T23:39:35.480Z,80.15
2023-11-18T23:42:11.924Z,81.70
2023-11-18T23:44:48.827Z,81.51
2023-11-18T23:47:23.946Z,81.30
2023-11-18T23:49:59.069Z,81.76
2023-11-18T23:52:33.534Z,80.67
2023-11-18T23:55:14.990Z,80.83
2023-11-18T23:57:49.187Z,80.27
